createdAt,value
2023-05-07T00:01:00.593Z,19.70
2023-05-07T00:03:47.035Z,19.70
2023-05-07T00:06:34.180Z,19.70
2023-05-07T00:09:20.093Z,19.70
2023-05-07T00:12:09.938Z,19.60
2023-05-07T00:14:56.962Z,19.60
2023-05-07T00:17:42.985Z,19.60
2023-05-07T00:20:29.261Z,19.60
2023-05-07T00:23:15.892Z,19.50
2023-05-07T00:26:05.645Z,19.50
2023-05-07T00:28:51.886Z,19.50
2023-05-07T00:31:38.178Z,19.50
2023-05-07T00:34:25.471Z,19.50
2023-05-07T00:37:13.472Z,19.40
2023-05-07T00:40:00.662Z,19.40
2023-05-07T00:42:49.433Z,19.40
2023-05-07T00:45:36.185Z,19.30
2023-05-07T00:48:25.534Z,19.30
2023-05-07T00:51:12.708Z,19.30
2023-05-07T00:53:58.842Z,19.20
2023-05-07T00:56:46.329Z,19.20
2023-05-07T00:59:34.893Z,19.10
2023-05-07T01:02:22.184Z,19.10
2023-05-07T01:05:13.138Z,19.10
2023-05-07T01:08:00.534Z,19.00
2023-05-07T01:10:47.765Z,19.00
2023-05-07T01:13:35.793Z,19.00
2023-05-07T01:16:22.850Z,19.00
2023-05-07T01:19:14.559Z,19.00
2023-05-07T01:22:12.648Z,18.90
2023-05-07T01:25:09.562Z,19.00
2023-05-07T01:28:03.864Z,18.90
2023-05-07T01:31:03.828Z,18.90
2023-05-07T01:33:52.822Z,18.90
2023-05-07T01:36:41.700Z,18.90
2023-05-07T01:39:30.231Z,18.90
2023-05-07T01:42:17.054Z,18.90
2023-05-07T01:45:07.150Z,18.90
2023-05-07T01:47:56.839Z,18.90
2023-05-07T01:50:45.022Z,18.90
2023-05-07T01:53:38.107Z,18.90
2023-05-07T01:56:26.798Z,18.90
2023-05-07T01:59:14.942Z,18.90
2023-05-07T02:02:01.768Z,18.90
2023-05-07T02:04:47.978Z,18.90
2023-05-07T02:07:35.441Z,18.90
2023-05-07T02:10:22.196Z,18.90
2023-05-07T02:13:08.432Z,18.90
2023-05-07T02:15:55.710Z,18.90
2023-05-07T02:18:43.426Z,18.90
2023-05-07T02:21:31.540Z,18.90
2023-05-07T02:24:17.335Z,18.90
2023-05-07T02:27:04.632Z,18.90
2023-05-07T02:29:50.557Z,18.90
2023-05-07T02:32:36.370Z,18.80
2023-05-07T02:35:22.230Z,18.80
2023-05-07T02:38:08.427Z,18.80
2023-05-07T02:40:55.006Z,18.80
2023-05-07T02:43:41.444Z,18.80
2023-05-07T02:46:27.375Z,18.70
2023-05-07T02:49:19.979Z,18.70
2023-05-07T02:52:07.645Z,18.70
2023-05-07T02:54:53.604Z,18.70
2023-05-07T02:57:39.373Z,18.70
2023-05-07T03:00:26.163Z,18.60
2023-05-07T03:03:22.828Z,18.60
2023-05-07T03:06:09.134Z,18.50
2023-05-07T03:08:54.829Z,18.50
2023-05-07T03:11:41.141Z,18.50
2023-05-07T03:14:27.103Z,18.50
2023-05-07T03:17:13.176Z,18.50
2023-05-07T03:19:58.886Z,18.40
2023-05-07T03:22:44.651Z,18.40
2023-05-07T03:25:34.641Z,18.40
2023-05-07T03:28:20.508Z,18.30
2023-05-07T03:31:13.082Z,18.30
2023-05-07T03:33:59.897Z,18.30
2023-05-07T03:36:46.098Z,18.30
2023-05-07T03:39:33.656Z,18.20
2023-05-07T03:42:20.526Z,18.20
2023-05-07T03:45:10.354Z,18.20
2023-05-07T03:47:58.708Z,18.20
2023-05-07T03:50:44.831Z,18.20
2023-05-07T03:53:30.724Z,18.10
2023-05-07T03:56:19.123Z,18.00
2023-05-07T03:59:06.089Z,18.00
2023-05-07T04:01:52.119Z,18.00
2023-05-07T04:04:41.005Z,18.00
2023-05-07T04:07:27.745Z,18.00
2023-05-07T04:10:14.655Z,18.00
2023-05-07T04:13:03.305Z,18.00
2023-05-07T04:15:50.181Z,17.90
2023-05-07T04:18:38.200Z,17.90
2023-05-07T04:21:24.905Z,17.90
2023-05-07T04:24:11.586Z,17.80
2023-05-07T04:27:00.138Z,17.80
2023-05-07T04:29:48.448Z,17.80
2023-05-07T04:32:37.660Z,17.80
2023-05-07T04:35:25.482Z,17.80
2023-05-07T04:38:12.262Z,17.80
2023-05-07T04:41:04.399Z,17.80
2023-05-07T04:43:50.824Z,17.80
2023-05-07T04:46:38.994Z,17.80
2023-05-07T04:49:25.273Z,17.80
2023-05-07T04:52:13.566Z,17.80
2023-05-07T04:55:03.548Z,17.90
2023-05-07T04:57:57.581Z,17.90
2023-05-07T05:00:45.090Z,18.00
2023-05-07T05:03:31.697Z,18.00
2023-05-07T05:06:18.024Z,18.00
2023-05-07T05:09:06.506Z,18.10
2023-05-07T05:11:57.433Z,18.20
2023-05-07T05:14:46.211Z,18.30
2023-05-07T05:17:32.202Z,18.30
2023-05-07T05:20:18.617Z,18.40
2023-05-07T05:23:09.310Z,18.50
2023-05-07T05:25:59.784Z,18.60
2023-05-07T05:28:48.924Z,18.70
2023-05-07T05:31:37.489Z,18.80
2023-05-07T05:34:27.674Z,18.90
2023-05-07T05:37:14.150Z,19.00
2023-05-07T05:40:03.677Z,19.00
2023-05-07T05:48:55.732Z,19.20
2023-05-07T05:51:44.872Z,19.20
2023-05-07T05:55:06.666Z,19.30
2023-05-07T05:58:26.389Z,19.50
2023-05-07T06:03:44.097Z,19.60
2023-05-07T06:05:46.069Z,19.70
2023-05-07T06:13:07.503Z,20.00
2023-05-07T06:15:55.466Z,20.10
2023-05-07T06:18:44.203Z,20.20
2023-05-07T06:21:30.200Z,20.30
2023-05-07T06:24:17.139Z,20.50
2023-05-07T06:27:06.202Z,20.60
2023-05-07T06:30:01.983Z,20.70
2023-05-07T06:32:49.214Z,20.80
2023-05-07T06:35:35.833Z,21.00
2023-05-07T06:38:24.720Z,21.10
2023-05-07T06:41:11.133Z,21.30
2023-05-07T06:43:58.433Z,21.40
2023-05-07T06:46:54.052Z,21.50
2023-05-07T06:49:47.656Z,21.60
2023-05-07T06:52:37.379Z,21.80
2023-05-07T06:55:27.290Z,21.90
2023-05-07T06:58:14.741Z,21.90
2023-05-07T07:01:03.506Z,22.00
2023-05-07T07:03:52.822Z,22.10
2023-05-07T07:06:40.957Z,22.20
2023-05-07T07:09:30.712Z,22.40
2023-05-07T07:12:21.215Z,22.50
2023-05-07T07:15:11.673Z,22.60
2023-05-07T07:17:58.718Z,22.70
2023-05-07T07:21:00.594Z,22.90
2023-05-07T07:23:47.142Z,23.00
2023-05-07T07:26:34.801Z,23.10
2023-05-07T07:29:21.599Z,23.20
2023-05-07T07:32:10.084Z,23.20
2023-05-07T07:34:56.759Z,23.30
2023-05-07T07:37:42.910Z,23.30
2023-05-07T07:40:34.952Z,23.40
2023-05-07T07:43:27.741Z,23.50
2023-05-07T07:46:40.632Z,23.50
2023-05-07T07:49:35.542Z,23.60
2023-05-07T07:52:30.605Z,23.70
2023-05-07T07:55:32.694Z,23.80
2023-05-07T07:58:34.015Z,23.90
2023-05-07T08:01:25.246Z,24.10
2023-05-07T08:04:14.784Z,24.20
2023-05-07T08:07:02.477Z,24.20
2023-05-07T08:10:22.540Z,24.30
2023-05-07T08:13:48.383Z,24.40
2023-05-07T08:21:26.617Z,24.50
2023-05-07T08:24:29.804Z,24.50
2023-05-07T08:27:55.862Z,24.70
2023-05-07T08:30:42.419Z,24.80
2023-05-07T08:33:29.248Z,24.90
2023-05-07T08:36:16.406Z,24.90
2023-05-07T08:39:02.170Z,25.00
2023-05-07T08:41:53.389Z,25.00
2023-05-07T08:44:41.056Z,25.00
2023-05-07T08:47:36.539Z,25.00
2023-05-07T08:50:23.005Z,25.10
2023-05-07T08:53:10.600Z,25.20
2023-05-07T08:55:56.896Z,25.30
2023-05-07T08:58:45.535Z,25.30
2023-05-07T09:01:31.891Z,25.40
2023-05-07T09:04:18.532Z,25.50
2023-05-07T09:07:06.792Z,25.60
2023-05-07T09:09:58.166Z,25.60
2023-05-07T09:16:23.441Z,25.60
2023-05-07T09:19:10.262Z,25.70
2023-05-07T09:22:02.169Z,25.70
2023-05-07T09:24:52.562Z,25.90
2023-05-07T09:27:43.790Z,26.00
2023-05-07T09:30:34.913Z,26.10
2023-05-07T09:33:28.659Z,26.20
2023-05-07T09:36:15.900Z,26.40
2023-05-07T09:39:02.948Z,26.50
2023-05-07T09:41:50.634Z,26.60
2023-05-07T09:44:45.527Z,26.80
2023-05-07T09:47:43.043Z,26.90
2023-05-07T09:50:33.161Z,27.00
2023-05-07T09:53:20.835Z,27.20
2023-05-07T09:56:07.191Z,27.30
2023-05-07T09:58:55.541Z,27.40
2023-05-07T10:01:46.368Z,27.40
2023-05-07T10:04:33.993Z,27.50
2023-05-07T10:07:21.512Z,27.50
2023-05-07T10:10:09.386Z,27.50
2023-05-07T10:13:00.389Z,27.70
2023-05-07T10:15:52.674Z,27.70
2023-05-07T10:18:40.571Z,27.70
2023-05-07T10:21:40.388Z,27.80
2023-05-07T10:24:35.388Z,27.90
2023-05-07T10:27:25.978Z,27.90
2023-05-07T10:30:39.910Z,27.90
2023-05-07T10:33:30.928Z,27.90
2023-05-07T10:36:19.700Z,27.90
2023-05-07T10:39:07.967Z,28.00
2023-05-07T10:41:55.408Z,28.10
2023-05-07T10:44:41.854Z,28.20
2023-05-07T10:47:33.444Z,28.30
2023-05-07T10:50:22.555Z,28.30
2023-05-07T10:53:20.973Z,28.20
2023-05-07T10:56:20.217Z,28.20
2023-05-07T10:59:28.949Z,28.20
2023-05-07T11:02:17.386Z,28.30
2023-05-07T11:05:24.577Z,28.30
2023-05-07T11:08:52.630Z,28.40
2023-05-07T11:11:54.428Z,28.40
2023-05-07T11:14:47.171Z,28.50
2023-05-07T11:17:58.253Z,28.40
2023-05-07T11:21:00.266Z,28.30
2023-05-07T11:24:11.345Z,28.20
2023-05-07T11:27:09.335Z,28.20
2023-05-07T11:29:57.408Z,28.20
2023-05-07T11:32:43.925Z,28.20
2023-05-07T11:35:31.431Z,28.20
2023-05-07T11:38:22.023Z,28.30
2023-05-07T11:41:10.012Z,28.30
2023-05-07T11:44:00.669Z,28.20
2023-05-07T11:46:47.148Z,28.20
2023-05-07T11:49:34.155Z,28.20
2023-05-07T11:52:25.173Z,28.20
2023-05-07T11:55:15.474Z,28.10
2023-05-07T11:58:01.383Z,28.10
2023-05-07T12:00:52.516Z,28.20
2023-05-07T12:03:44.068Z,28.30
2023-05-07T12:06:31.419Z,28.40
2023-05-07T12:09:22.214Z,28.40
2023-05-07T12:12:21.204Z,28.40
2023-05-07T12:15:08.462Z,28.40
2023-05-07T12:17:58.721Z,28.40
2023-05-07T12:20:51.998Z,28.30
2023-05-07T12:23:49.855Z,28.30
2023-05-07T12:26:44.607Z,28.30
2023-05-07T12:29:34.332Z,28.20
2023-05-07T12:32:22.502Z,28.20
2023-05-07T12:35:09.275Z,28.30
2023-05-07T12:38:05.503Z,28.20
2023-05-07T12:40:55.687Z,28.10
2023-05-07T12:43:45.488Z,28.10
2023-05-07T12:46:32.294Z,28.20
2023-05-07T12:49:23.770Z,28.20
2023-05-07T12:52:18.454Z,28.10
2023-05-07T12:55:15.451Z,28.00
2023-05-07T12:58:11.461Z,28.00
2023-05-07T13:01:01.664Z,28.00
2023-05-07T13:03:51.713Z,27.90
2023-05-07T13:06:48.687Z,27.90
2023-05-07T13:09:35.138Z,27.90
2023-05-07T13:12:21.875Z,27.90
2023-05-07T13:15:10.848Z,27.90
2023-05-07T13:17:59.034Z,27.70
2023-05-07T13:20:44.804Z,27.80
2023-05-07T13:23:33.207Z,27.80
2023-05-07T13:29:11.505Z,27.90
2023-05-07T13:32:01.365Z,27.90
2023-05-07T13:34:47.602Z,27.90
2023-05-07T13:37:33.607Z,27.80
2023-05-07T13:40:22.898Z,27.80
2023-05-07T13:43:08.916Z,27.80
2023-05-07T13:45:55.492Z,27.80
2023-05-07T13:48:41.642Z,27.80
2023-05-07T13:51:27.437Z,27.80
2023-05-07T13:54:13.366Z,27.80
2023-05-07T13:56:59.444Z,27.70
2023-05-07T13:59:45.309Z,27.70
2023-05-07T14:02:34.773Z,27.60
2023-05-07T14:05:20.997Z,27.60
2023-05-07T14:08:08.917Z,27.60
2023-05-07T14:10:55.564Z,27.60
2023-05-07T14:13:41.558Z,27.60
2023-05-07T14:16:28.552Z,27.60
2023-05-07T14:19:14.917Z,27.60
2023-05-07T14:22:03.597Z,27.60
2023-05-07T14:25:03.270Z,27.50
2023-05-07T14:27:52.567Z,27.50
2023-05-07T14:30:38.249Z,27.50
2023-05-07T14:33:24.169Z,27.50
2023-05-07T14:36:10.250Z,27.50
2023-05-07T14:38:56.750Z,27.40
2023-05-07T14:41:42.417Z,27.40
2023-05-07T14:44:28.476Z,27.30
2023-05-07T14:47:15.841Z,27.30
2023-05-07T14:50:02.713Z,27.20
2023-05-07T14:52:48.875Z,27.20
2023-05-07T14:55:38.253Z,27.20
2023-05-07T14:58:26.588Z,27.20
2023-05-07T15:01:12.408Z,27.10
2023-05-07T15:03:58.268Z,27.10
2023-05-07T15:06:43.866Z,27.00
2023-05-07T15:09:30.823Z,27.00
2023-05-07T15:12:17.206Z,27.00
2023-05-07T15:15:03.717Z,27.00
2023-05-07T15:17:49.347Z,27.00
2023-05-07T15:20:36.561Z,26.90
2023-05-07T15:28:14.278Z,26.70
2023-05-07T15:31:02.325Z,26.60
2023-05-07T15:33:53.130Z,26.60
2023-05-07T15:36:38.831Z,26.40
2023-05-07T15:39:27.850Z,26.30
2023-05-07T15:42:21.132Z,26.20
2023-05-07T15:45:08.174Z,26.10
2023-05-07T15:47:54.319Z,26.00
2023-05-07T15:50:40.549Z,25.90
2023-05-07T15:53:26.837Z,25.70
2023-05-07T15:56:12.953Z,25.60
2023-05-07T15:59:02.526Z,25.50
2023-05-07T16:01:51.739Z,25.40
2023-05-07T16:04:42.861Z,25.30
2023-05-07T16:07:33.250Z,25.10
2023-05-07T16:10:23.750Z,24.90
2023-05-07T16:13:09.864Z,24.70
2023-05-07T16:16:00.044Z,24.50
2023-05-07T16:18:46.444Z,24.20
2023-05-07T16:21:33.668Z,24.10
2023-05-07T16:24:24.041Z,23.90
2023-05-07T16:27:10.100Z,23.70
2023-05-07T16:29:58.620Z,23.50
2023-05-07T16:32:44.576Z,23.40
2023-05-07T16:35:32.353Z,23.30
2023-05-07T16:38:18.543Z,23.20
2023-05-07T16:41:06.159Z,23.10
2023-05-07T16:44:02.014Z,23.00
2023-05-07T16:46:56.961Z,22.90
2023-05-07T16:49:43.275Z,22.90
2023-05-07T16:52:32.636Z,22.90
2023-05-07T16:55:21.132Z,22.80
2023-05-07T16:58:09.216Z,22.80
2023-05-07T17:00:54.902Z,22.70
2023-05-07T17:03:40.753Z,22.70
2023-05-07T17:06:27.155Z,22.60
2023-05-07T17:09:12.739Z,22.60
2023-05-07T17:11:58.347Z,22.60
2023-05-07T17:14:43.990Z,22.60
2023-05-07T17:17:32.449Z,22.60
2023-05-07T17:20:18.043Z,22.50
2023-05-07T17:23:04.288Z,22.50
2023-05-07T17:25:59.688Z,22.50
2023-05-07T17:28:45.929Z,22.50
2023-05-07T17:31:32.168Z,22.40
2023-05-07T17:34:18.135Z,22.40
2023-05-07T17:37:19.456Z,22.40
2023-05-07T17:40:09.462Z,22.30
2023-05-07T17:42:57.477Z,22.30
2023-05-07T17:45:50.280Z,22.20
2023-05-07T17:48:43.720Z,22.20
2023-05-07T17:51:45.937Z,22.10
2023-05-07T17:54:41.355Z,22.00
2023-05-07T17:57:32.917Z,22.00
2023-05-07T18:00:26.265Z,22.00
2023-05-07T18:03:13.541Z,22.00
2023-05-07T18:06:02.254Z,21.90
2023-05-07T18:08:52.175Z,21.80
2023-05-07T18:11:38.131Z,21.80
2023-05-07T18:14:27.241Z,21.60
2023-05-07T18:17:13.170Z,21.60
2023-05-07T18:19:59.144Z,21.60
2023-05-07T18:22:47.396Z,21.60
2023-05-07T18:25:33.680Z,21.50
2023-05-07T18:28:22.180Z,21.50
2023-05-07T18:31:09.508Z,21.40
2023-05-07T18:33:56.171Z,21.40
2023-05-07T18:36:42.379Z,21.40
2023-05-07T18:39:29.375Z,21.30
2023-05-07T18:42:16.009Z,21.40
2023-05-07T18:45:03.286Z,21.40
2023-05-07T18:47:49.279Z,21.50
2023-05-07T18:50:38.065Z,21.60
2023-05-07T18:53:26.594Z,21.70
2023-05-07T18:56:18.055Z,21.70
2023-05-07T18:59:17.466Z,21.70
2023-05-07T19:02:07.158Z,21.80
2023-05-07T19:04:53.471Z,21.80
2023-05-07T19:07:39.945Z,21.80
2023-05-07T19:10:29.943Z,21.80
2023-05-07T19:13:16.045Z,21.80
2023-05-07T19:16:02.150Z,21.80
2023-05-07T19:18:48.545Z,21.80
2023-05-07T19:21:34.601Z,21.80
2023-05-07T19:24:20.688Z,21.70
2023-05-07T19:27:09.958Z,21.70
2023-05-07T19:30:04.868Z,21.70
2023-05-07T19:32:57.075Z,21.60
2023-05-07T19:35:47.666Z,21.70
2023-05-07T19:38:33.591Z,21.70
2023-05-07T19:41:22.057Z,21.70
2023-05-07T19:44:08.854Z,21.70
2023-05-07T19:46:54.780Z,21.70
2023-05-07T19:49:41.206Z,21.70
2023-05-07T19:52:29.267Z,21.70
2023-05-07T19:55:16.154Z,21.70
2023-05-07T19:58:02.415Z,21.70
2023-05-07T20:00:50.989Z,21.70
2023-05-07T20:03:37.359Z,21.70
2023-05-07T20:06:24.101Z,21.70
2023-05-07T20:09:12.959Z,21.70
2023-05-07T20:11:58.944Z,21.60
2023-05-07T20:14:47.279Z,21.60
2023-05-07T20:17:33.438Z,21.50
2023-05-07T20:20:21.912Z,21.40
2023-05-07T20:23:08.704Z,21.40
2023-05-07T20:25:55.288Z,21.40
2023-05-07T20:28:41.077Z,21.40
2023-05-07T20:31:27.167Z,21.30
2023-05-07T20:34:15.519Z,21.30
2023-05-07T20:37:03.986Z,21.30
2023-05-07T20:39:49.740Z,21.30
2023-05-07T20:42:36.460Z,21.30
2023-05-07T20:45:25.344Z,21.30
2023-05-07T20:48:14.560Z,21.30
2023-05-07T20:51:03.243Z,21.30
2023-05-07T20:53:49.434Z,21.30
2023-05-07T20:56:36.120Z,21.30
2023-05-07T20:59:22.505Z,21.30
2023-05-07T21:02:08.814Z,21.30
2023-05-07T21:04:54.884Z,21.40
2023-05-07T21:07:40.968Z,21.40
2023-05-07T21:10:27.047Z,21.30
2023-05-07T21:13:16.567Z,21.40
2023-05-07T21:16:02.435Z,21.30
2023-05-07T21:18:48.612Z,21.40
2023-05-07T21:21:37.186Z,21.40
2023-05-07T21:24:22.822Z,21.40
2023-05-07T21:27:09.830Z,21.40
2023-05-07T21:30:03.407Z,21.40
2023-05-07T21:32:50.159Z,21.40
2023-05-07T21:35:37.159Z,21.40
2023-05-07T21:38:23.188Z,21.40
2023-05-07T21:41:09.248Z,21.40
2023-05-07T21:43:55.113Z,21.40
2023-05-07T21:46:41.995Z,21.40
2023-05-07T21:49:28.567Z,21.40
2023-05-07T21:52:17.045Z,21.40
2023-05-07T21:55:03.164Z,21.40
2023-05-07T21:58:01.239Z,21.40
2023-05-07T22:00:50.950Z,21.40
2023-05-07T22:03:36.976Z,21.30
2023-05-07T22:06:23.132Z,21.30
2023-05-07T22:09:09.408Z,21.30
2023-05-07T22:11:55.259Z,21.30
2023-05-07T22:14:41.262Z,21.30
2023-05-07T22:17:26.896Z,21.30
2023-05-07T22:20:15.737Z,21.30
2023-05-07T22:23:01.743Z,21.30
2023-05-07T22:25:48.460Z,21.30
2023-05-07T22:28:34.645Z,21.30
2023-05-07T22:31:22.514Z,21.30
2023-05-07T22:34:08.509Z,21.20
2023-05-07T22:36:54.144Z,21.20
2023-05-07T22:39:40.859Z,21.20
2023-05-07T22:42:26.930Z,21.20
2023-05-07T22:45:14.477Z,21.20
2023-05-07T22:48:00.350Z,21.20
2023-05-07T22:50:46.417Z,21.20
2023-05-07T22:53:32.134Z,21.10
2023-05-07T22:56:18.813Z,21.10
2023-05-07T22:59:05.512Z,21.10
2023-05-07T23:01:51.707Z,21.10
2023-05-07T23:04:37.422Z,21.10
2023-05-07T23:07:23.528Z,21.00
2023-05-07T23:10:09.997Z,21.00
2023-05-07T23:12:56.212Z,21.00
2023-05-07T23:15:42.974Z,21.00
2023-05-07T23:18:30.544Z,21.00
2023-05-07T23:21:16.361Z,20.90
2023-05-07T23:24:02.199Z,20.90
2023-05-07T23:26:47.934Z,20.90
2023-05-07T23:29:34.085Z,20.90
2023-05-07T23:32:23.156Z,20.90
2023-05-07T23:35:12.037Z,20.90
2023-05-07T23:37:58.879Z,20.90
2023-05-07T23:40:44.511Z,20.80
2023-05-07T23:43:30.055Z,20.80
2023-05-07T23:46:15.842Z,20.80
2023-05-07T23:49:01.838Z,20.80
2023-05-07T23:51:47.531Z,20.80
2023-05-07T23:54:33.468Z,20.80
2023-05-07T23:57:19.351Z,20.80
